Time;durP1;ratioP1;P1;durP2;ratioP2;P2;SDS_P1;SDS_P2;PMS_P1;PMS_P2;Temp;Humidity;BMP_temperature;BMP_pressure;BME280_temperature;BME280_humidity;BME280_pressure;Samples;Min_cycle;Max_cycle;Signal;HPM_P1;HPM_P2
2024/01/28 00:01:01;;;;;;;6.57;3.40;;;;;;;8.99;71.82;100287.69;6310575;22;20015;-93
2024/01/28 00:03:28;;;;;;;8.07;3.50;;;;;;;8.78;71.02;100246.06;6313816;22;20083;-94
2024/01/28 00:05:54;;;;;;;8.45;3.25;;;;;;;8.55;70.21;100206.19;6313587;22;20122;-93
2024/01/28 00:08:20;;;;;;;7.50;3.22;;;;;;;8.68;69.95;100233.66;6312750;22;20023;-93
2024/01/28 00:10:46;;;;;;;6.20;2.80;;;;;;;9.07;68.61;100287.75;6313055;22;20023;-92
2024/01/28 00:13:12;;;;;;;7.72;2.95;;;;;;;9.04;68.45;100290.34;6314843;22;20097;-92
2024/01/28 00:15:38;;;;;;;3.88;2.30;;;;;;;9.05;67.23;100294.81;6313304;22;20015;-96
2024/01/28 00:18:06;;;;;;;5.10;2.30;;;;;;;9.08;66.89;100281.53;6315132;22;20023;-94
2024/01/28 00:20:32;;;;;;;6.93;2.35;;;;;;;8.99;67.26;100273.56;6315065;22;20015;-96
2024/01/28 00:22:58;;;;;;;6.88;2.97;;;;;;;8.76;65.43;100217.75;6317506;22;20023;-95
2024/01/28 00:25:23;;;;;;;5.65;2.33;;;;;;;9.25;64.98;100293.09;6313322;22;20054;-95
2024/01/28 00:27:50;;;;;;;5.32;2.75;;;;;;;9.16;63.61;100273.59;6311333;22;20022;-93
2024/01/28 00:30:17;;;;;;;4.57;2.58;;;;;;;9.25;63.27;100284.25;6310159;22;20019;-93
2024/01/28 00:32:44;;;;;;;3.42;2.10;;;;;;;9.32;63.07;100288.69;6312531;22;20025;-94
2024/01/28 00:35:11;;;;;;;4.93;2.03;;;;;;;9.34;63.50;100313.47;6311463;22;20015;-93
2024/01/28 00:37:37;;;;;;;5.57;1.90;;;;;;;9.08;62.96;100284.19;6312954;22;20019;-94
2024/01/28 00:40:04;;;;;;;6.80;2.58;;;;;;;9.05;62.71;100284.19;6312671;22;20011;-93
2024/01/28 00:42:30;;;;;;;6.65;2.00;;;;;;;9.20;62.05;100294.84;6310592;22;20019;-95
2024/01/28 00:44:56;;;;;;;3.30;1.80;;;;;;;9.15;62.40;100301.00;6312549;22;20022;-93
2024/01/28 00:47:22;;;;;;;5.82;2.63;;;;;;;8.93;61.75;100257.59;6311489;22;20000;-93
2024/01/28 00:49:48;;;;;;;6.03;2.10;;;;;;;8.81;62.39;100255.81;6313278;22;20023;-94
2024/01/28 00:52:15;;;;;;;3.80;1.70;;;;;;;8.87;61.59;100266.44;6313501;22;20483;-93
2024/01/28 00:54:41;;;;;;;3.97;2.13;;;;;;;8.79;60.60;100245.19;6311654;22;20019;-92
2024/01/28 00:57:07;;;;;;;3.10;1.83;;;;;;;9.24;60.26;100312.56;6311360;22;20453;-94
2024/01/28 00:59:32;;;;;;;4.45;1.73;;;;;;;9.21;59.40;100290.41;6284523;22;20011;-93
2024/01/28 01:01:58;;;;;;;3.88;1.85;;;;;;;9.32;58.41;100298.41;6310649;22;20015;-93
2024/01/28 01:04:24;;;;;;;5.20;1.60;;;;;;;9.26;58.86;100286.03;6310745;22;20023;-93
2024/01/28 01:06:50;;;;;;;4.38;1.50;;;;;;;9.23;58.33;100278.91;6284844;22;20073;-93
2024/01/28 01:09:18;;;;;;;3.72;1.73;;;;;;;9.50;57.00;100319.72;6311752;22;20046;-92
2024/01/28 01:11:43;;;;;;;2.90;1.60;;;;;;;9.41;56.09;100274.53;6310835;22;20759;-93
2024/01/28 01:14:10;;;;;;;3.70;1.70;;;;;;;9.24;56.76;100258.59;6312417;22;20111;-96
2024/01/28 01:16:35;;;;;;;3.90;1.75;;;;;;;9.42;56.30;100294.91;6309921;22;20023;-93
2024/01/28 01:19:01;;;;;;;4.55;1.70;;;;;;;9.54;56.60;100321.50;6310137;22;20110;-93
2024/01/28 01:21:27;;;;;;;5.57;1.67;;;;;;;9.42;56.56;100316.16;6311171;22;20444;-93
2024/01/28 01:23:53;;;;;;;5.28;2.33;;;;;;;9.15;55.83;100253.25;6310982;22;20047;-93
2024/01/28 01:26:21;;;;;;;3.42;1.63;;;;;;;9.36;55.89;100310.81;6310820;22;20019;-95
2024/01/28 01:28:47;;;;;;;3.17;1.35;;;;;;;9.29;56.68;100312.56;6311017;22;20003;-96
2024/01/28 01:31:13;;;;;;;4.22;2.28;;;;;;;8.96;56.84;100253.22;6287007;22;20015;-95
2024/01/28 01:33:41;;;;;;;3.58;1.60;;;;;;;8.91;57.47;100259.38;6314127;22;20015;-95
2024/01/28 01:36:07;;;;;;;3.67;1.88;;;;;;;8.84;56.31;100243.41;6311424;22;20046;-94
2024/01/28 01:38:33;;;;;;;4.03;1.70;;;;;;;9.37;56.43;100333.84;6296211;22;20029;-94
2024/01/28 01:40:58;;;;;;;4.05;2.10;;;;;;;8.98;56.31;100288.59;6311952;22;20020;-94
2024/01/28 01:43:26;;;;;;;2.63;1.25;;;;;;;9.30;56.21;100332.03;6288102;22;20030;-94
2024/01/28 01:45:53;;;;;;;3.30;1.92;;;;;;;9.06;56.37;100296.56;6313836;22;20012;-96
2024/01/28 01:48:20;;;;;;;5.22;2.28;;;;;;;8.70;55.95;100253.09;6310508;22;20019;-95
2024/01/28 01:50:45;;;;;;;2.22;1.30;;;;;;;9.14;56.27;100334.63;6312613;22;20015;-94
2024/01/28 01:53:13;;;;;;;5.15;2.17;;;;;;;8.73;55.53;100255.75;6312909;22;20034;-95
2024/01/28 01:55:40;;;;;;;4.03;1.60;;;;;;;8.71;55.55;100254.88;6311329;22;20019;-95
2024/01/28 01:58:07;;;;;;;3.35;1.40;;;;;;;8.70;55.90;100261.06;6310364;22;20442;-95
2024/01/28 02:00:38;;;;;;;3.90;1.85;;;;;;;8.85;56.04;100302.69;6309074;22;20499;-95
2024/01/28 02:03:04;;;;;;;3.63;2.03;;;;;;;8.68;55.76;100276.09;6309698;22;20265;-91
2024/01/28 02:05:30;;;;;;;3.33;1.40;;;;;;;8.83;55.85;100294.72;6310891;22;20019;-95
2024/01/28 02:07:56;;;;;;;2.70;1.50;;;;;;;8.96;55.84;100323.97;6285472;22;20042;-93
2024/01/28 02:10:22;;;;;;;4.75;1.75;;;;;;;8.74;56.20;100292.03;6318833;22;20022;-92
2024/01/28 02:12:50;;;;;;;4.07;2.00;;;;;;;8.62;56.92;100281.34;6311473;22;20063;-95
2024/01/28 02:15:17;;;;;;;4.60;2.25;;;;;;;8.66;56.51;100287.56;6310914;22;20021;-92
2024/01/28 02:17:46;;;;;;;3.58;1.80;;;;;;;8.54;56.17;100261.84;6310110;22;20019;-96
2024/01/28 02:20:12;;;;;;;4.28;2.05;;;;;;;8.68;55.18;100267.25;6284636;22;20388;-94
2024/01/28 02:22:38;;;;;;;4.78;1.63;;;;;;;8.70;55.35;100266.38;6308788;22;20019;-94
2024/01/28 02:25:06;;;;;;;5.32;2.42;;;;;;;9.08;55.46;100339.91;6310413;22;20023;-92
2024/01/28 02:27:32;;;;;;;4.22;1.75;;;;;;;9.08;56.19;100361.16;6309869;22;20073;-92
2024/01/28 02:29:58;;;;;;;7.10;1.95;;;;;;;8.81;56.17;100308.84;6309743;22;20020;-94
2024/01/28 02:32:24;;;;;;;3.42;1.70;;;;;;;8.82;55.91;100302.66;6309989;22;20015;-91
2024/01/28 02:34:50;;;;;;;3.80;1.83;;;;;;;9.03;55.82;100342.56;6284436;22;20051;-92
2024/01/28 02:37:16;;;;;;;4.85;1.92;;;;;;;8.99;55.85;100342.53;6284014;22;20019;-93
2024/01/28 02:40:04;;;;;;;4.93;2.30;;;;;;;8.76;55.88;100294.66;6310140;22;20015;-94
2024/01/28 02:42:31;;;;;;;6.57;2.35;;;;;;;9.05;56.46;100353.19;6307661;22;20020;-91
2024/01/28 02:44:57;;;;;;;3.92;1.80;;;;;;;8.59;56.49;100284.88;6309895;22;20022;-94
2024/01/28 02:47:23;;;;;;;3.67;1.70;;;;;;;8.81;56.50;100325.66;6308208;22;20019;-92
2024/01/28 02:49:49;;;;;;;4.35;1.52;;;;;;;8.74;56.27;100323.84;6309045;22;20384;-92
2024/01/28 02:52:15;;;;;;;5.35;1.63;;;;;;;8.38;56.49;100271.47;6310283;22;20039;-93
2024/01/28 02:54:41;;;;;;;3.83;1.65;;;;;;;8.53;57.11;100307.81;6311522;22;20027;-94
2024/01/28 02:57:07;;;;;;;3.63;1.83;;;;;;;8.70;56.01;100324.72;6311276;22;20459;-92
2024/01/28 02:59:34;;;;;;;3.47;1.23;;;;;;;8.35;56.47;100267.03;6311390;22;20098;-92
2024/01/28 03:02:00;;;;;;;3.10;1.75;;;;;;;8.76;56.06;100347.72;6308732;22;20019;-93
2024/01/28 03:04:26;;;;;;;2.80;1.52;;;;;;;8.38;57.53;100322.72;6309249;22;20046;-95
2024/01/28 03:06:52;;;;;;;3.42;1.55;;;;;;;8.52;56.45;100335.19;6308858;22;20019;-96
2024/01/28 03:09:18;;;;;;;4.13;1.55;;;;;;;8.60;55.97;100346.75;6308682;22;20018;-92
2024/01/28 03:11:44;;;;;;;3.15;1.75;;;;;;;8.63;56.32;100352.97;6308628;22;20038;-91
2024/01/28 03:14:11;;;;;;;4.63;1.73;;;;;;;8.60;56.31;100336.13;6312837;22;20023;-92
2024/01/28 03:16:40;;;;;;;4.18;1.80;;;;;;;8.17;56.80;100266.91;6314920;22;20424;-93
2024/01/28 03:19:06;;;;;;;3.55;1.60;;;;;;;8.60;56.00;100342.31;6313087;22;20023;-93
2024/01/28 03:21:33;;;;;;;6.00;1.80;;;;;;;8.11;56.27;100254.53;6313349;22;20018;-94
2024/01/28 03:23:58;;;;;;;2.78;1.42;;;;;;;8.28;56.79;100296.13;6319857;22;20015;-94
2024/01/28 03:26:26;;;;;;;4.60;1.70;;;;;;;8.24;57.26;100300.53;6317522;22;20084;-95
2024/01/28 03:28:52;;;;;;;3.95;1.73;;;;;;;8.45;56.88;100338.69;6316771;22;20046;-95
2024/01/28 03:31:18;;;;;;;4.10;1.80;;;;;;;8.50;56.76;100336.94;6316213;22;20039;-95
2024/01/28 03:33:46;;;;;;;3.85;1.50;;;;;;;8.51;56.97;100342.28;6315800;22;20023;-95
2024/01/28 03:36:12;;;;;;;5.38;1.75;;;;;;;8.05;56.76;100261.53;6318056;22;20011;-96
2024/01/28 03:38:39;;;;;;;5.88;1.75;;;;;;;8.09;57.14;100276.56;6320879;22;20078;-96
2024/01/28 03:41:05;;;;;;;3.28;1.60;;;;;;;8.41;57.48;100343.06;6319340;22;20019;-92
2024/01/28 03:43:31;;;;;;;4.20;1.45;;;;;;;8.21;57.79;100301.38;6318418;22;20026;-95
2024/01/28 03:45:57;;;;;;;3.53;1.50;;;;;;;8.07;57.83;100283.59;6319942;22;20370;-96
2024/01/28 03:48:23;;;;;;;3.72;1.58;;;;;;;8.25;58.23;100333.22;6316389;22;20003;-93
2024/01/28 03:50:50;;;;;;;3.60;1.50;;;;;;;7.92;59.01;100287.06;6291126;22;20015;-95
2024/01/28 03:53:17;;;;;;;3.47;1.65;;;;;;;7.85;59.34;100282.56;6318910;22;20106;-93
2024/01/28 03:55:45;;;;;;;3.92;2.10;;;;;;;8.10;59.47;100347.25;6289089;22;20111;-94
2024/01/28 03:58:11;;;;;;;3.72;1.88;;;;;;;8.04;59.27;100332.16;6314148;22;20058;-92
2024/01/28 04:00:37;;;;;;;5.20;2.28;;;;;;;8.16;59.31;100348.16;6312967;22;20015;-94
2024/01/28 04:03:03;;;;;;;3.10;1.70;;;;;;;7.69;59.53;100294.78;6314360;22;20050;-94
2024/01/28 04:05:29;;;;;;;6.28;2.80;;;;;;;7.56;60.50;100275.25;6311810;22;20011;-92
2024/01/28 04:08:00;;;;;;;4.40;2.30;;;;;;;7.97;60.12;100351.53;6310870;22;20361;-94
2024/01/28 04:10:27;;;;;;;3.72;1.80;;;;;;;7.72;59.74;100301.00;6312003;22;20039;-93
2024/01/28 04:12:53;;;;;;;5.63;2.45;;;;;;;8.03;59.05;100347.19;6311532;22;20027;-92
2024/01/28 04:15:19;;;;;;;3.55;1.80;;;;;;;8.07;58.63;100349.84;6311991;22;20015;-94
2024/01/28 04:17:46;;;;;;;5.75;1.67;;;;;;;8.16;57.63;100334.03;6312911;22;20015;-93
2024/01/28 04:20:12;;;;;;;5.18;1.80;;;;;;;8.17;58.06;100354.34;6311313;22;20016;-96
2024/01/28 04:22:39;;;;;;;5.15;1.65;;;;;;;7.73;57.82;100278.06;6313992;22;20023;-96
2024/01/28 04:25:07;;;;;;;3.38;1.55;;;;;;;8.13;57.45;100356.09;6313056;22;20019;-93
2024/01/28 04:27:33;;;;;;;5.22;1.70;;;;;;;7.70;57.42;100288.59;6312400;22;20069;-93
2024/01/28 04:29:59;;;;;;;3.72;1.70;;;;;;;7.97;57.00;100331.22;6312438;22;20019;-95
2024/01/28 04:32:25;;;;;;;2.67;1.33;;;;;;;7.85;56.73;100303.75;6309879;22;20054;-94
2024/01/28 04:34:51;;;;;;;3.95;1.42;;;;;;;7.73;56.27;100283.34;6315437;22;20025;-93
2024/01/28 04:37:16;;;;;;;2.92;1.38;;;;;;;8.11;55.76;100339.31;6288461;22;20080;-94
2024/01/28 04:39:42;;;;;;;3.78;1.67;;;;;;;8.11;56.07;100349.00;6311439;22;20106;-96
2024/01/28 04:42:10;;;;;;;9.27;1.52;;;;;;;8.11;55.49;100341.03;6293644;22;20082;-94
2024/01/28 04:44:36;;;;;;;3.58;1.60;;;;;;;8.09;55.28;100341.06;6254052;22;20019;-93
2024/01/28 04:47:03;;;;;;;2.50;1.35;;;;;;;8.08;54.80;100339.25;6253950;22;20464;-92
2024/01/28 04:49:29;;;;;;;2.38;1.40;;;;;;;7.96;54.63;100320.66;6254916;22;20115;-94
2024/01/28 04:51:55;;;;;;;2.67;1.20;;;;;;;8.12;54.17;100343.72;6255631;22;20062;-92
2024/01/28 04:54:22;;;;;;;4.10;1.65;;;;;;;7.98;54.41;100326.81;6256265;22;20028;-92
2024/01/28 04:56:48;;;;;;;3.55;1.40;;;;;;;8.10;53.74;100349.88;6255187;22;20047;-91
2024/01/28 04:59:15;;;;;;;4.03;1.73;;;;;;;7.85;53.88;100323.19;6254325;22;20023;-92
2024/01/28 05:01:41;;;;;;;4.57;1.65;;;;;;;7.78;54.20;100321.34;6255558;22;20019;-92
2024/01/28 05:04:07;;;;;;;3.28;1.02;;;;;;;7.75;54.18;100308.09;6253938;22;20553;-94
2024/01/28 05:06:35;;;;;;;3.72;1.10;;;;;;;7.97;54.35;100338.28;6256504;22;20012;-92
2024/01/28 05:09:03;;;;;;;3.08;1.27;;;;;;;7.93;54.56;100344.44;6254561;22;20042;-94
2024/01/28 05:11:29;;;;;;;2.53;1.40;;;;;;;7.81;55.19;100337.28;6254986;22;20015;-94
2024/01/28 05:13:55;;;;;;;2.70;1.15;;;;;;;7.66;55.26;100331.84;6254633;22;20031;-92
2024/01/28 05:16:23;;;;;;;4.38;1.30;;;;;;;7.68;55.35;100343.34;6255787;22;20015;-94
2024/01/28 05:18:50;;;;;;;3.40;1.20;;;;;;;7.74;55.40;100346.03;6254949;22;20010;-93
2024/01/28 05:21:16;;;;;;;2.78;1.20;;;;;;;7.75;55.69;100347.81;6255862;22;20104;-94
2024/01/28 05:23:42;;;;;;;2.97;1.25;;;;;;;7.41;55.90;100307.75;6256571;22;20393;-93
2024/01/28 05:26:08;;;;;;;5.50;1.70;;;;;;;7.40;56.09;100306.00;6254805;22;20016;-93
2024/01/28 05:28:34;;;;;;;2.60;1.10;;;;;;;7.45;55.65;100319.25;6256176;22;20016;-94
2024/01/28 05:31:00;;;;;;;3.58;1.33;;;;;;;7.67;55.25;100350.38;6255789;22;20078;-93
2024/01/28 05:33:28;;;;;;;1.98;1.20;;;;;;;7.90;54.88;100382.38;6254164;22;20020;-91
2024/01/28 05:35:56;;;;;;;3.10;0.98;;;;;;;7.49;55.03;100327.25;6255135;22;20434;-95
2024/01/28 05:38:22;;;;;;;4.75;1.58;;;;;;;7.99;55.40;100408.97;6256517;22;20050;-92
2024/01/28 05:40:48;;;;;;;3.38;1.38;;;;;;;7.82;55.20;100389.34;6253599;22;20015;-95
2024/01/28 05:43:14;;;;;;;3.47;1.20;;;;;;;7.77;55.25;100383.13;6255595;22;20449;-96
2024/01/28 05:45:39;;;;;;;3.05;1.38;;;;;;;7.47;54.96;100339.56;6250931;22;20027;-96
2024/01/28 05:48:06;;;;;;;3.70;1.35;;;;;;;7.33;55.23;100330.59;6253691;22;20030;-95
2024/01/28 05:50:34;;;;;;;5.13;1.55;;;;;;;7.63;55.60;100377.69;6253686;22;20457;-92
2024/01/28 05:53:00;;;;;;;3.45;1.10;;;;;;;7.46;55.47;100345.75;6256368;22;20040;-94
2024/01/28 05:55:26;;;;;;;2.35;1.05;;;;;;;7.45;55.91;100359.84;6254309;22;20445;-94
2024/01/28 05:57:53;;;;;;;4.40;1.30;;;;;;;7.26;55.66;100344.63;6254436;22;20047;-94
2024/01/28 06:00:20;;;;;;;3.45;1.00;;;;;;;7.41;55.39;100371.25;6254841;22;20020;-94
2024/01/28 06:02:46;;;;;;;4.70;1.40;;;;;;;7.73;54.97;100432.53;6256003;22;20008;-92
2024/01/28 06:05:11;;;;;;;6.40;2.92;;;;;;;7.22;60.76;100387.78;6256055;22;20333;-95
2024/01/28 06:07:39;;;;;;;9.70;3.30;;;;;;;6.30;65.02;100375.03;6255520;22;20025;-94
2024/01/28 06:10:06;;;;;;;4.40;1.75;;;;;;;6.07;65.63;100369.41;6255303;22;20026;-95
2024/01/28 06:12:32;;;;;;;5.10;3.40;;;;;;;6.31;67.49;100427.03;6255403;22;20011;-96
2024/01/28 06:15:02;;;;;;;5.90;2.80;;;;;;;5.98;68.51;100408.84;6255011;22;20019;-96
2024/01/28 06:17:29;;;;;;;7.97;2.80;;;;;;;5.71;70.73;100396.88;6256781;22;20020;-95
2024/01/28 06:19:55;;;;;;;8.75;3.42;;;;;;;5.47;72.57;100407.88;6256918;22;20016;-95
2024/01/28 06:22:21;;;;;;;3.83;1.65;;;;;;;5.47;65.30;100392.03;6255914;22;20430;-94
2024/01/28 06:24:48;;;;;;;5.55;2.30;;;;;;;6.17;59.90;100387.16;6253968;22;20115;-95
2024/01/28 06:27:14;;;;;;;4.53;1.55;;;;;;;6.62;58.04;100421.34;6256630;22;20048;-95
2024/01/28 06:29:40;;;;;;;6.88;2.88;;;;;;;6.68;61.65;100424.06;6255822;22;20045;-95
2024/01/28 06:32:06;;;;;;;4.30;2.25;;;;;;;6.14;62.64;100392.41;6255391;22;20023;-95
2024/01/28 06:34:32;;;;;;;5.30;2.75;;;;;;;6.31;65.48;100434.97;6256003;22;20106;-94
2024/01/28 06:36:58;;;;;;;5.03;2.38;;;;;;;5.72;67.85;100410.97;6256897;22;20374;-96
2024/01/28 06:39:24;;;;;;;2.78;1.10;;;;;;;6.41;57.00;100403.41;6255237;22;20074;-95
2024/01/28 06:41:51;;;;;;;2.45;1.27;;;;;;;6.96;54.51;100412.13;6254879;22;20406;-94
2024/01/28 06:44:17;;;;;;;4.00;1.30;;;;;;;7.19;53.24;100410.69;6254827;22;20492;-94
2024/01/28 06:46:44;;;;;;;3.67;1.15;;;;;;;7.41;51.83;100418.91;6252038;22;20003;-93
2024/01/28 06:49:10;;;;;;;2.97;1.20;;;;;;;7.50;51.91;100407.53;6254883;22;20442;-94
2024/01/28 06:51:41;;;;;;;3.35;1.13;;;;;;;7.55;51.52;100411.16;6259291;22;20046;-95
2024/01/28 06:54:06;;;;;;;4.75;1.10;;;;;;;7.74;50.73;100420.16;6259417;22;20086;-94
2024/01/28 06:56:32;;;;;;;2.42;1.20;;;;;;;7.84;50.99;100445.00;6259933;22;20019;-94
2024/01/28 06:59:00;;;;;;;1.35;0.63;;;;;;;8.09;50.49;100480.56;6256957;22;20102;-94
2024/01/28 07:01:28;;;;;;;2.35;0.90;;;;;;;8.09;50.65;100462.94;6256482;22;20078;-94
2024/01/28 07:03:54;;;;;;;1.35;0.82;;;;;;;7.96;51.28;100464.56;6258053;22;20095;-96
2024/01/28 07:06:20;;;;;;;2.88;0.95;;;;;;;8.23;49.84;100482.50;6256666;22;20043;-94
2024/01/28 07:08:45;;;;;;;3.05;0.82;;;;;;;7.98;50.01;100420.44;6255912;22;20114;-94
2024/01/28 07:11:11;;;;;;;2.75;1.00;;;;;;;8.04;50.31;100422.25;6259272;22;20042;-96
2024/01/28 07:13:43;;;;;;;4.72;1.75;;;;;;;8.08;49.82;100437.28;6269488;22;20023;-95
2024/01/28 07:16:13;;;;;;;2.65;1.08;;;;;;;8.28;50.43;100481.66;6273446;22;20468;-94
2024/01/28 07:18:39;;;;;;;4.55;0.88;;;;;;;8.10;50.31;100424.06;6267100;22;20092;-95
2024/01/28 07:21:05;;;;;;;2.85;1.00;;;;;;;8.34;49.93;100469.34;6269837;22;20011;-96
2024/01/28 07:23:31;;;;;;;3.45;1.05;;;;;;;8.20;50.73;100415.34;6265623;22;20008;-95
2024/01/28 07:25:58;;;;;;;1.60;1.05;;;;;;;8.22;49.46;100425.09;6259423;22;20330;-95
2024/01/28 07:28:24;;;;;;;3.15;1.08;;;;;;;8.22;52.08;100422.44;6263105;22;20338;-93
2024/01/28 07:30:49;;;;;;;5.13;1.00;;;;;;;8.39;49.14;100443.78;6260376;22;19996;-96
2024/01/28 07:33:17;;;;;;;2.45;0.85;;;;;;;8.51;50.73;100458.06;6262136;22;20016;-96
2024/01/28 07:35:43;;;;;;;3.42;1.15;;;;;;;8.59;50.03;100467.84;6258999;22;20026;-96
2024/01/28 07:38:09;;;;;;;2.00;1.02;;;;;;;8.55;50.38;100462.50;6259934;22;20024;-96
2024/01/28 07:40:35;;;;;;;3.15;1.00;;;;;;;8.30;52.51;100430.44;6259528;22;20016;-95
2024/01/28 07:43:02;;;;;;;3.92;1.83;;;;;;;8.75;50.89;100510.41;6259283;22;20027;-96
2024/01/28 07:45:28;;;;;;;2.63;0.98;;;;;;;8.35;51.23;100460.53;6259575;22;20433;-95
2024/01/28 07:47:53;;;;;;;1.48;0.80;;;;;;;8.36;48.97;100430.50;6258589;22;20030;-93
2024/01/28 07:50:21;;;;;;;2.13;0.90;;;;;;;8.55;49.63;100431.56;6258579;22;20019;-96
2024/01/28 07:52:47;;;;;;;1.80;0.88;;;;;;;8.66;49.14;100442.25;6259608;22;20019;-96
2024/01/28 07:55:13;;;;;;;1.65;0.90;;;;;;;9.01;51.12;100484.06;6259053;22;20110;-94
2024/01/28 07:57:39;;;;;;;3.28;1.20;;;;;;;8.75;48.41;100444.97;6258557;22;20019;-95
2024/01/28 08:00:10;;;;;;;2.97;1.20;;;;;;;8.97;50.53;100439.81;6258113;22;20496;-96
2024/01/28 08:02:36;;;;;;;3.85;1.50;;;;;;;9.19;50.01;100452.31;6258196;22;20110;-96
2024/01/28 08:05:02;;;;;;;5.20;2.20;;;;;;;9.28;50.22;100453.25;6259219;22;20019;-95
2024/01/28 08:07:29;;;;;;;2.00;1.10;;;;;;;9.45;49.54;100464.84;6260006;22;20021;-95
2024/01/28 08:09:55;;;;;;;1.73;0.80;;;;;;;9.39;49.32;100451.53;6260008;22;20042;-95
2024/01/28 08:12:21;;;;;;;2.47;0.98;;;;;;;9.80;46.50;100519.88;6255536;22;20023;-95
2024/01/28 08:14:47;;;;;;;3.55;1.25;;;;;;;9.90;46.34;100503.09;6259789;22;20043;-95
2024/01/28 08:17:14;;;;;;;1.25;0.70;;;;;;;9.65;45.71;100441.94;6260923;22;20023;-95
2024/01/28 08:19:40;;;;;;;1.67;0.80;;;;;;;10.00;45.22;100496.06;6260598;22;20027;-96
2024/01/28 08:22:06;;;;;;;2.55;1.10;;;;;;;9.92;45.76;100498.69;6258252;22;20024;-95
2024/01/28 08:24:34;;;;;;;3.63;1.20;;;;;;;9.94;45.32;100465.03;6260176;22;20047;-96
2024/01/28 08:27:00;;;;;;;2.55;0.90;;;;;;;10.41;43.76;100532.50;6259016;22;20020;-94
2024/01/28 08:29:26;;;;;;;1.95;0.80;;;;;;;10.07;44.38;100460.63;6259197;22;20047;-93
2024/01/28 08:31:52;;;;;;;3.35;0.93;;;;;;;10.36;43.32;100467.78;6258684;22;20110;-95
2024/01/28 08:34:18;;;;;;;3.20;0.82;;;;;;;10.47;42.34;100540.50;6255591;22;20024;-95
2024/01/28 08:36:44;;;;;;;1.80;0.98;;;;;;;10.06;42.09;100457.09;6256256;22;20358;-95
2024/01/28 08:39:10;;;;;;;2.88;1.30;;;;;;;10.33;42.99;100499.72;6255418;22;20391;-93
2024/01/28 08:41:38;;;;;;;2.60;1.00;;;;;;;10.26;42.95;100477.50;6255372;22;20015;-94
2024/01/28 08:44:05;;;;;;;2.13;0.80;;;;;;;10.45;43.07;100508.59;6254298;22;20016;-93
2024/01/28 08:46:31;;;;;;;2.80;0.98;;;;;;;10.50;42.90;100503.28;6254400;22;20019;-93
2024/01/28 08:48:57;;;;;;;2.13;0.70;;;;;;;10.66;42.23;100501.50;6255970;22;20106;-94
2024/01/28 08:51:23;;;;;;;2.60;0.93;;;;;;;10.71;43.13;100465.13;6258802;22;20023;-96
2024/01/28 08:53:49;;;;;;;2.60;0.90;;;;;;;10.78;43.13;100472.25;6258980;22;20016;-94
2024/01/28 08:56:15;;;;;;;2.95;1.48;;;;;;;10.97;44.11;100475.75;6259705;22;20003;-95
2024/01/28 08:58:43;;;;;;;4.07;1.77;;;;;;;11.06;43.83;100472.19;6257933;22;20026;-96
2024/01/28 09:01:11;;;;;;;3.78;2.10;;;;;;;11.60;42.39;100570.63;6257832;22;20039;-96
2024/01/28 09:03:37;;;;;;;3.55;1.80;;;;;;;11.48;43.14;100516.50;6257120;22;20020;-95
2024/01/28 09:06:05;;;;;;;2.45;1.00;;;;;;;11.76;40.51;100550.19;6255951;22;20024;-95
2024/01/28 09:08:31;;;;;;;1.92;1.05;;;;;;;11.35;40.79;100527.19;6255405;22;20023;-94
2024/01/28 09:10:57;;;;;;;3.67;1.75;;;;;;;11.22;42.30;100494.38;6256799;22;20110;-96
2024/01/28 09:13:42;;;;;;;6.25;2.08;;;;;;;11.42;42.17;100532.50;6258502;22;20027;-95
2024/01/28 09:16:09;;;;;;;3.63;2.30;;;;;;;11.60;41.64;100544.91;6255491;22;20110;-96
2024/01/28 09:18:35;;;;;;;4.93;2.15;;;;;;;11.46;41.52;100531.59;6257847;22;20044;-94
2024/01/28 09:21:03;;;;;;;5.53;2.42;;;;;;;11.68;41.65;100550.19;6258930;22;20015;-94
2024/01/28 09:23:32;;;;;;;2.90;1.80;;;;;;;11.24;41.47;100495.25;6263102;22;20024;-96
2024/01/28 09:26:00;;;;;;;4.85;2.30;;;;;;;11.36;42.10;100512.97;6263509;22;20073;-96
2024/01/28 09:28:26;;;;;;;2.97;1.27;;;;;;;11.61;41.49;100506.69;6264837;22;20128;-96
2024/01/28 09:30:53;;;;;;;2.25;1.15;;;;;;;12.12;40.40;100565.16;6258986;22;20012;-96
2024/01/28 09:33:19;;;;;;;4.97;1.73;;;;;;;11.99;40.90;100520.78;6255575;22;20016;-96
2024/01/28 09:35:46;;;;;;;4.43;1.30;;;;;;;12.08;41.20;100508.31;6263135;22;20020;-95
2024/01/28 09:38:12;;;;;;;5.68;1.60;;;;;;;11.99;39.94;100542.09;6257726;22;20026;-93
2024/01/28 09:40:39;;;;;;;4.05;1.27;;;;;;;12.06;40.97;100538.53;6259656;22;20015;-96
2024/01/28 09:43:13;;;;;;;4.90;1.80;;;;;;;12.26;41.09;100519.75;6261229;22;20042;-95
2024/01/28 09:45:39;;;;;;;4.63;1.67;;;;;;;12.67;40.40;100585.31;6260404;22;20019;-95
2024/01/28 09:48:09;;;;;;;4.22;1.85;;;;;;;12.66;40.53;100594.22;6258978;22;20023;-93
2024/01/28 09:50:34;;;;;;;4.35;1.30;;;;;;;12.48;39.78;100557.88;6258806;22;20003;-94
2024/01/28 09:53:04;;;;;;;4.35;1.13;;;;;;;12.43;40.49;100552.56;6264163;22;20076;-95
2024/01/28 09:55:30;;;;;;;4.93;1.17;;;;;;;12.33;40.60;100534.81;6268642;22;20020;-95
2024/01/28 09:58:07;;;;;;;2.28;1.00;;;;;;;12.21;40.31;100533.13;6266310;22;20015;-96
2024/01/28 10:00:33;;;;;;;2.88;1.27;;;;;;;12.25;40.28;100560.66;6259724;22;20042;-93
2024/01/28 10:02:59;;;;;;;2.42;1.25;;;;;;;12.58;40.66;100585.38;6260766;22;20023;-93
2024/01/28 10:05:34;;;;;;;4.30;1.65;;;;;;;12.38;40.38;100525.00;6260909;22;20023;-94
2024/01/28 10:08:02;;;;;;;3.65;1.35;;;;;;;12.45;40.01;100540.09;6260661;22;20020;-93
2024/01/28 10:10:28;;;;;;;1.65;0.88;;;;;;;12.63;40.10;100552.41;6259750;22;20047;-96
2024/01/28 10:12:56;;;;;;;2.05;1.05;;;;;;;12.72;39.87;100540.78;6260424;22;20019;-94
2024/01/28 10:15:27;;;;;;;3.92;1.40;;;;;;;12.89;41.05;100552.22;6259436;22;20016;-96
2024/01/28 10:17:53;;;;;;;3.28;1.27;;;;;;;13.01;40.54;100548.59;6259618;22;20042;-95
2024/01/28 10:20:23;;;;;;;3.08;1.08;;;;;;;13.35;39.73;100589.25;6264695;22;20038;-96
2024/01/28 10:22:52;;;;;;;1.77;0.82;;;;;;;13.17;39.46;100578.72;6262452;22;20073;-94
2024/01/28 10:25:20;;;;;;;2.92;0.93;;;;;;;13.10;37.05;100561.84;6260103;22;20027;-95
2024/01/28 10:27:47;;;;;;;2.67;0.80;;;;;;;12.94;39.48;100509.47;6262509;22;20042;-91
2024/01/28 10:30:42;;;;;;;3.38;1.30;;;;;;;13.00;39.06;100503.19;6268690;22;20024;-95
2024/01/28 10:33:08;;;;;;;1.88;1.02;;;;;;;13.07;40.20;100552.97;6257674;22;20438;-93
2024/01/28 10:35:34;;;;;;;3.15;1.70;;;;;;;12.77;40.33;100522.94;6255295;22;20085;-94
2024/01/28 10:38:04;;;;;;;2.50;0.93;;;;;;;12.88;40.22;100546.88;6256148;22;20418;-92
2024/01/28 10:40:37;;;;;;;3.17;0.90;;;;;;;13.44;39.77;100587.41;6257437;22;20023;-95
2024/01/28 10:43:04;;;;;;;3.70;1.40;;;;;;;13.14;40.40;100517.28;6255176;22;20099;-95
2024/01/28 10:45:33;;;;;;;2.25;1.20;;;;;;;13.43;39.78;100549.09;6253105;22;20020;-95
2024/01/28 10:48:06;;;;;;;2.55;1.27;;;;;;;13.23;39.07;100492.25;6253580;22;20068;-96
2024/01/28 10:50:34;;;;;;;4.75;1.50;;;;;;;13.51;39.65;100541.91;6258349;22;20020;-94
2024/01/28 10:53:04;;;;;;;3.50;1.17;;;;;;;13.07;39.39;100492.41;6260094;22;20015;-95
2024/01/28 10:55:32;;;;;;;4.88;1.27;;;;;;;13.51;40.59;100557.03;6253787;22;20019;-94
2024/01/28 10:58:03;;;;;;;3.03;0.95;;;;;;;13.04;39.80;100472.88;6254195;22;20028;-95
2024/01/28 11:00:30;;;;;;;1.92;1.05;;;;;;;13.24;39.88;100505.63;6256632;22;19999;-96
2024/01/28 11:02:59;;;;;;;3.05;0.80;;;;;;;13.13;38.83;100492.38;6256014;22;20020;-95
2024/01/28 11:05:33;;;;;;;1.75;0.77;;;;;;;13.20;39.09;100505.66;6255713;22;20114;-95
2024/01/28 11:07:59;;;;;;;2.83;1.20;;;;;;;13.41;38.77;100534.00;6254220;22;20016;-94
2024/01/28 11:10:33;;;;;;;2.40;0.93;;;;;;;13.10;39.26;100512.91;6252196;22;20086;-94
2024/01/28 11:13:02;;;;;;;1.70;0.90;;;;;;;13.33;38.46;100534.94;6251534;22;20020;-92
2024/01/28 11:15:30;;;;;;;3.25;1.23;;;;;;;13.28;38.56;100514.50;6253448;22;20020;-94
2024/01/28 11:17:57;;;;;;;4.10;1.52;;;;;;;13.19;38.81;100526.16;6256178;22;20069;-94
2024/01/28 11:20:27;;;;;;;2.28;1.20;;;;;;;13.06;38.13;100492.47;6254083;22;20020;-93
2024/01/28 11:22:54;;;;;;;3.83;1.08;;;;;;;12.93;37.88;100476.53;6253172;22;20022;-94
2024/01/28 11:25:24;;;;;;;2.58;1.10;;;;;;;12.92;38.37;100461.44;6255283;22;20085;-93
2024/01/28 11:28:03;;;;;;;3.88;1.48;;;;;;;12.98;38.21;100464.94;6253280;22;20102;-93
2024/01/28 11:30:34;;;;;;;4.05;1.40;;;;;;;13.26;38.31;100484.25;6254855;22;20445;-94